createdAt,value
2017-07-26T00:00:34.650Z,1.13
2017-07-26T00:03:02.085Z,1.03
2017-07-26T00:05:29.526Z,0.97
2017-07-26T00:07:57.761Z,0.87
2017-07-26T00:10:25.215Z,1.00
2017-07-26T00:12:52.662Z,0.87
2017-07-26T00:15:20.106Z,1.20
2017-07-26T00:17:47.555Z,1.10
2017-07-26T00:20:15.003Z,1.17
2017-07-26T00:22:42.438Z,1.00
2017-07-26T00:25:10.663Z,1.13
2017-07-26T00:27:38.103Z,0.80
2017-07-26T00:30:05.558Z,0.87
2017-07-26T00:32:32.999Z,0.90
2017-07-26T00:35:00.434Z,0.73
2017-07-26T00:37:28.647Z,1.17
2017-07-26T00:39:56.097Z,0.97
2017-07-26T00:42:23.526Z,1.00
2017-07-26T00:44:50.967Z,0.70
2017-07-26T00:47:19.227Z,0.70
2017-07-26T00:49:46.642Z,0.80
2017-07-26T00:52:14.074Z,0.70
2017-07-26T00:54:41.519Z,1.00
2017-07-26T00:57:09.728Z,1.00
2017-07-26T00:59:37.182Z,0.80
2017-07-26T01:02:04.622Z,0.70
2017-07-26T01:04:32.079Z,0.90
2017-07-26T01:06:59.506Z,0.90
2017-07-26T01:09:27.726Z,0.80
2017-07-26T01:11:55.164Z,0.80
2017-07-26T01:14:22.619Z,0.73
2017-07-26T01:16:50.056Z,0.80
2017-07-26T01:19:18.266Z,0.67
2017-07-26T01:21:45.711Z,0.67
2017-07-26T01:24:13.145Z,0.60
2017-07-26T01:26:41.355Z,0.90
2017-07-26T01:29:08.811Z,0.90
2017-07-26T01:31:36.255Z,0.80
2017-07-26T01:34:03.688Z,0.80
2017-07-26T01:36:31.895Z,0.70
2017-07-26T01:38:59.355Z,0.53
2017-07-26T01:41:26.807Z,0.87
2017-07-26T01:43:54.242Z,0.63
2017-07-26T01:46:21.682Z,0.60
2017-07-26T01:48:49.894Z,0.70
2017-07-26T01:51:17.330Z,0.77
2017-07-26T01:53:44.775Z,0.60
2017-07-26T01:56:12.979Z,0.50
2017-07-26T01:58:40.425Z,0.80
2017-07-26T02:01:07.866Z,0.80
2017-07-26T02:03:35.316Z,0.73
2017-07-26T02:06:02.755Z,0.70
2017-07-26T02:08:30.991Z,0.90
2017-07-26T02:10:58.435Z,0.63
2017-07-26T02:13:25.871Z,0.80
2017-07-26T02:15:53.319Z,0.80
2017-07-26T02:18:20.758Z,0.80
2017-07-26T02:20:48.977Z,0.63
2017-07-26T02:23:16.430Z,0.67
2017-07-26T02:25:43.882Z,1.00
2017-07-26T02:28:11.319Z,0.90
2017-07-26T02:30:38.763Z,0.83
2017-07-26T02:33:06.972Z,0.80
2017-07-26T02:35:34.442Z,0.70
2017-07-26T02:38:01.889Z,0.80
2017-07-26T02:40:29.342Z,0.90
2017-07-26T02:42:56.799Z,0.90
2017-07-26T02:45:24.238Z,1.00
2017-07-26T02:47:51.689Z,0.93
2017-07-26T02:50:19.126Z,1.10
2017-07-26T02:52:48.161Z,1.20
2017-07-26T02:55:15.596Z,1.37
2017-07-26T02:57:43.036Z,1.13
2017-07-26T03:00:11.244Z,1.40
2017-07-26T03:02:38.696Z,1.57
2017-07-26T03:05:06.127Z,1.50
2017-07-26T03:07:33.599Z,1.27
2017-07-26T03:10:01.034Z,2.00
2017-07-26T03:12:29.247Z,1.80
2017-07-26T03:14:56.698Z,1.90
2017-07-26T03:17:24.141Z,2.30
2017-07-26T03:19:51.585Z,2.10
2017-07-26T03:22:19.015Z,2.13
2017-07-26T03:24:47.244Z,2.10
2017-07-26T03:27:14.695Z,2.30
2017-07-26T03:29:42.152Z,2.47
2017-07-26T03:32:09.580Z,2.40
2017-07-26T03:34:37.027Z,2.17
2017-07-26T03:37:05.243Z,1.80
2017-07-26T03:39:32.698Z,1.87
2017-07-26T03:42:00.155Z,1.90
2017-07-26T03:44:27.605Z,2.20
2017-07-26T03:46:55.062Z,2.10
2017-07-26T03:49:22.519Z,1.80
2017-07-26T03:51:49.980Z,2.17
2017-07-26T03:54:17.422Z,1.90
2017-07-26T03:56:44.858Z,2.00
2017-07-26T03:59:12.294Z,2.47
2017-07-26T04:01:40.523Z,2.20
2017-07-26T04:04:07.975Z,1.63
2017-07-26T04:06:35.410Z,1.70
2017-07-26T04:09:02.859Z,2.03
2017-07-26T04:11:30.290Z,2.20
2017-07-26T04:13:58.515Z,2.17
2017-07-26T04:16:25.954Z,2.10
2017-07-26T04:18:53.406Z,2.23
2017-07-26T04:21:20.840Z,2.70
2017-07-26T04:23:49.071Z,2.53
2017-07-26T04:26:16.526Z,2.90
2017-07-26T04:28:43.970Z,3.10
2017-07-26T04:31:11.426Z,2.93
2017-07-26T04:33:38.858Z,3.50
2017-07-26T04:36:06.297Z,3.43
2017-07-26T04:38:34.511Z,3.70
2017-07-26T04:41:01.966Z,4.10
2017-07-26T04:43:29.417Z,3.93
2017-07-26T04:45:56.854Z,3.90
2017-07-26T04:48:24.294Z,4.17
2017-07-26T04:50:52.523Z,4.33
2017-07-26T04:53:19.967Z,4.30
2017-07-26T04:55:47.405Z,4.57
2017-07-26T04:58:14.851Z,4.23
2017-07-26T05:00:42.284Z,4.10
2017-07-26T05:03:10.502Z,3.83
2017-07-26T05:05:37.935Z,3.97
2017-07-26T05:08:05.375Z,4.13
2017-07-26T05:10:33.592Z,3.60
2017-07-26T05:13:01.048Z,4.03
2017-07-26T05:15:28.474Z,4.30
2017-07-26T05:17:55.939Z,4.40
2017-07-26T05:20:23.375Z,4.00
2017-07-26T05:22:50.811Z,4.33
2017-07-26T05:25:18.263Z,4.20
2017-07-26T05:27:45.709Z,4.10
2017-07-26T05:30:13.151Z,4.87
2017-07-26T05:32:40.597Z,4.37
2017-07-26T05:35:08.047Z,4.50
2017-07-26T05:37:35.482Z,5.23
2017-07-26T05:40:02.964Z,4.97
2017-07-26T05:42:30.399Z,4.77
2017-07-26T05:44:57.857Z,4.67
2017-07-26T05:47:25.290Z,4.97
2017-07-26T05:49:53.494Z,4.67
2017-07-26T05:52:20.934Z,5.17
2017-07-26T05:54:48.392Z,5.03
2017-07-26T05:57:15.814Z,4.97
2017-07-26T05:59:43.263Z,5.30
2017-07-26T06:02:10.723Z,4.97
2017-07-26T06:04:38.158Z,4.83
2017-07-26T06:07:05.610Z,5.80
2017-07-26T06:09:33.055Z,5.30
2017-07-26T06:12:00.494Z,5.33
2017-07-26T06:14:27.939Z,5.80
2017-07-26T06:16:55.370Z,5.40
2017-07-26T06:19:23.647Z,5.60
2017-07-26T06:21:51.077Z,5.40
2017-07-26T06:24:18.530Z,6.03
2017-07-26T06:26:45.979Z,5.30
2017-07-26T06:29:13.423Z,5.30
2017-07-26T06:31:40.858Z,5.83
2017-07-26T06:34:08.338Z,5.50
2017-07-26T06:36:35.770Z,5.80
2017-07-26T06:39:03.207Z,5.80
2017-07-26T06:41:31.423Z,5.13
2017-07-26T06:43:58.864Z,5.47
2017-07-26T06:46:26.311Z,6.00
2017-07-26T06:48:53.754Z,5.90
2017-07-26T06:51:21.194Z,5.20
2017-07-26T06:53:49.411Z,5.90
2017-07-26T06:56:16.848Z,5.80
2017-07-26T06:58:44.286Z,5.60
2017-07-26T07:01:12.503Z,5.60
2017-07-26T07:03:39.947Z,5.50
2017-07-26T07:06:07.416Z,5.10
2017-07-26T07:11:12.837Z,5.77
2017-07-26T07:13:40.290Z,5.63
2017-07-26T07:16:07.719Z,5.30
2017-07-26T07:18:35.166Z,5.83
2017-07-26T07:21:03.378Z,5.77
2017-07-26T07:23:30.834Z,5.30
2017-07-26T07:25:58.295Z,5.70
2017-07-26T07:28:25.746Z,5.47
2017-07-26T07:30:53.182Z,6.20
2017-07-26T07:33:20.632Z,6.10
2017-07-26T07:35:48.071Z,6.37
2017-07-26T07:38:16.286Z,5.17
2017-07-26T07:40:43.719Z,5.40
2017-07-26T07:43:11.157Z,6.10
2017-07-26T07:45:39.376Z,5.30
2017-07-26T07:48:06.884Z,4.83
2017-07-26T07:50:35.107Z,5.30
2017-07-26T07:53:02.538Z,4.90
2017-07-26T07:55:29.985Z,6.00
2017-07-26T07:57:58.195Z,5.27
2017-07-26T08:00:25.646Z,5.10
2017-07-26T08:02:53.092Z,4.53
2017-07-26T08:05:20.534Z,4.00
2017-07-26T08:07:47.978Z,3.80
2017-07-26T08:10:16.236Z,3.67
2017-07-26T08:12:43.682Z,3.33
2017-07-26T08:15:11.335Z,3.30
2017-07-26T08:17:38.802Z,3.17
2017-07-26T08:20:06.278Z,3.17
2017-07-26T08:22:33.689Z,3.83
2017-07-26T08:25:01.217Z,3.57
2017-07-26T08:27:28.658Z,4.07
2017-07-26T08:29:56.879Z,3.60
2017-07-26T08:32:24.331Z,4.63
2017-07-26T08:34:51.787Z,4.00
2017-07-26T08:37:19.219Z,4.23
2017-07-26T08:39:46.651Z,4.80
2017-07-26T08:42:14.095Z,4.90
2017-07-26T08:44:41.567Z,3.87
2017-07-26T08:47:09.033Z,4.53
2017-07-26T08:49:37.247Z,4.10
2017-07-26T08:52:04.682Z,4.00
2017-07-26T08:54:32.114Z,4.67
2017-07-26T08:57:00.363Z,4.90
2017-07-26T08:59:27.798Z,4.17
2017-07-26T09:01:55.248Z,4.70
2017-07-26T09:04:22.682Z,4.10
2017-07-26T09:06:50.127Z,4.40
2017-07-26T09:09:18.330Z,5.00
2017-07-26T09:11:45.856Z,4.50
2017-07-26T09:14:14.058Z,4.63
2017-07-26T09:16:41.498Z,5.10
2017-07-26T09:19:08.939Z,4.60
2017-07-26T09:21:37.148Z,5.00
2017-07-26T09:24:04.603Z,4.57
2017-07-26T09:26:32.048Z,4.53
2017-07-26T09:28:59.502Z,4.40
2017-07-26T09:31:26.947Z,5.17
2017-07-26T09:33:54.391Z,5.07
2017-07-26T09:36:22.607Z,4.70
2017-07-26T09:38:50.059Z,4.57
2017-07-26T09:41:17.498Z,5.47
2017-07-26T09:43:44.940Z,5.23
2017-07-26T09:46:12.384Z,4.77
2017-07-26T09:48:40.599Z,5.33
2017-07-26T09:51:08.045Z,4.80
2017-07-26T09:53:35.499Z,5.37
2017-07-26T09:56:02.938Z,6.00
2017-07-26T09:58:30.384Z,5.20
2017-07-26T10:00:58.595Z,5.50
2017-07-26T10:03:26.067Z,5.33
2017-07-26T10:05:53.509Z,5.60
2017-07-26T10:08:20.944Z,5.10
2017-07-26T10:10:48.386Z,4.80
2017-07-26T10:13:16.595Z,5.43
2017-07-26T10:15:44.039Z,5.53
2017-07-26T10:18:11.475Z,4.60
2017-07-26T10:20:38.914Z,5.30
2017-07-26T10:23:07.176Z,5.00
2017-07-26T10:25:34.626Z,5.13
2017-07-26T10:28:02.062Z,5.03
2017-07-26T10:30:29.550Z,5.47
2017-07-26T10:32:56.976Z,5.10
2017-07-26T10:35:24.417Z,5.07
2017-07-26T10:37:51.849Z,5.17
2017-07-26T10:40:19.298Z,5.43
2017-07-26T10:42:46.739Z,5.00
2017-07-26T10:45:14.959Z,5.03
2017-07-26T10:47:42.400Z,5.20
2017-07-26T10:50:09.844Z,5.70
2017-07-26T10:52:37.282Z,5.73
2017-07-26T10:55:05.502Z,4.87
2017-07-26T10:57:32.950Z,5.20
2017-07-26T11:00:00.413Z,5.90
2017-07-26T11:02:27.874Z,5.47
2017-07-26T11:04:55.311Z,5.20
2017-07-26T11:07:22.765Z,5.50
2017-07-26T11:09:50.203Z,5.40
2017-07-26T11:12:18.415Z,6.00
2017-07-26T11:14:45.855Z,5.87
2017-07-26T11:17:13.298Z,5.20
2017-07-26T11:19:40.738Z,5.33
2017-07-26T11:22:08.951Z,5.53
2017-07-26T11:24:36.398Z,5.87
2017-07-26T11:27:03.838Z,5.00
2017-07-26T11:29:31.278Z,5.20
2017-07-26T11:31:59.494Z,5.90
2017-07-26T11:34:26.931Z,5.30
2017-07-26T11:36:54.367Z,5.27
2017-07-26T11:39:22.582Z,5.73
2017-07-26T11:41:50.022Z,5.80
2017-07-26T11:44:17.459Z,5.73
2017-07-26T11:46:44.898Z,5.47
2017-07-26T11:49:13.130Z,5.90
2017-07-26T11:51:40.555Z,5.60
2017-07-26T11:54:07.998Z,4.97
2017-07-26T11:56:36.202Z,6.00
2017-07-26T11:59:03.638Z,5.57
2017-07-26T12:01:31.081Z,5.50
2017-07-26T12:03:59.295Z,5.70
2017-07-26T12:06:26.734Z,5.37
2017-07-26T12:08:54.178Z,5.07
2017-07-26T12:11:21.614Z,5.70
2017-07-26T12:13:49.822Z,5.30
2017-07-26T12:16:17.262Z,5.60
2017-07-26T12:18:44.719Z,5.50
2017-07-26T12:21:12.154Z,5.80
2017-07-26T12:23:40.406Z,5.00
2017-07-26T12:26:07.863Z,5.47
2017-07-26T12:28:36.073Z,6.13
2017-07-26T12:31:04.283Z,6.00
2017-07-26T12:33:31.723Z,5.37
2017-07-26T12:35:59.162Z,6.03
2017-07-26T12:38:26.603Z,5.60
2017-07-26T12:40:54.810Z,6.20
2017-07-26T12:43:22.243Z,5.47
2017-07-26T12:45:50.451Z,4.80
2017-07-26T12:48:17.890Z,4.50
2017-07-26T12:50:45.330Z,4.50
2017-07-26T12:53:13.541Z,5.10
2017-07-26T12:55:41.004Z,5.17
2017-07-26T12:58:08.456Z,5.20
2017-07-26T13:00:35.907Z,4.00
2017-07-26T13:03:03.351Z,4.27
2017-07-26T13:05:30.799Z,4.40
2017-07-26T13:07:58.274Z,4.50
2017-07-26T13:10:25.719Z,4.70
2017-07-26T13:12:53.190Z,4.10
2017-07-26T13:15:20.635Z,4.73
2017-07-26T13:17:48.076Z,4.73
2017-07-26T13:20:15.518Z,4.73
2017-07-26T13:22:43.793Z,5.13
2017-07-26T13:25:12.003Z,5.40
2017-07-26T13:27:39.457Z,4.23
2017-07-26T13:30:06.900Z,5.03
2017-07-26T13:32:34.343Z,4.60
2017-07-26T13:35:01.782Z,4.33
2017-07-26T13:37:30.000Z,4.67
2017-07-26T13:39:57.430Z,4.10
2017-07-26T13:42:24.879Z,4.80
2017-07-26T13:44:53.086Z,4.87
2017-07-26T13:47:20.537Z,4.20
2017-07-26T13:49:47.975Z,4.93
2017-07-26T13:52:15.411Z,4.80
2017-07-26T13:54:43.626Z,4.97
2017-07-26T13:57:11.122Z,4.90
2017-07-26T13:59:38.570Z,5.20
2017-07-26T14:02:06.006Z,5.10
2017-07-26T14:04:33.455Z,5.23
2017-07-26T14:07:00.910Z,4.80
2017-07-26T14:09:28.370Z,5.00
2017-07-26T14:11:55.823Z,5.43
2017-07-26T14:14:23.279Z,4.90
2017-07-26T14:16:50.710Z,4.93
2017-07-26T14:19:18.154Z,4.87
2017-07-26T14:21:46.366Z,5.23
2017-07-26T14:24:13.822Z,5.40
2017-07-26T14:26:41.273Z,5.63
2017-07-26T14:29:08.735Z,5.43
2017-07-26T14:31:36.173Z,5.80
2017-07-26T14:34:03.610Z,5.50
2017-07-26T14:36:31.820Z,5.10
2017-07-26T14:38:59.277Z,5.60
2017-07-26T14:41:26.731Z,5.70
2017-07-26T14:43:54.367Z,4.77
2017-07-26T14:46:22.579Z,4.70
2017-07-26T14:48:50.014Z,5.23
2017-07-26T14:51:17.462Z,5.07
2017-07-26T14:53:44.899Z,4.97
2017-07-26T14:56:13.114Z,5.10
2017-07-26T14:58:40.562Z,4.33
2017-07-26T15:01:08.002Z,4.40
2017-07-26T15:03:35.439Z,4.97
2017-07-26T15:06:03.655Z,4.80
2017-07-26T15:08:31.103Z,4.83
2017-07-26T15:10:58.558Z,4.20
2017-07-26T15:13:25.999Z,4.70
2017-07-26T15:15:53.998Z,4.43
2017-07-26T15:18:21.443Z,4.13
2017-07-26T15:20:48.877Z,4.57
2017-07-26T15:23:16.321Z,4.70
2017-07-26T15:25:43.765Z,5.23
2017-07-26T15:28:11.982Z,4.70
2017-07-26T15:30:39.433Z,4.80
2017-07-26T15:33:06.871Z,5.30
2017-07-26T15:35:34.303Z,4.30
2017-07-26T15:38:02.527Z,4.83
2017-07-26T15:40:29.975Z,3.93
2017-07-26T15:42:58.186Z,4.50
2017-07-26T15:45:25.638Z,4.63
2017-07-26T15:47:53.082Z,4.57
2017-07-26T15:50:20.531Z,3.63
2017-07-26T15:52:47.978Z,3.90
2017-07-26T15:55:16.186Z,4.10
2017-07-26T15:57:43.679Z,4.40
2017-07-26T16:00:11.111Z,4.27
2017-07-26T16:02:38.556Z,4.00
2017-07-26T16:05:06.012Z,4.20
2017-07-26T16:07:33.468Z,3.87
2017-07-26T16:10:00.902Z,4.67
2017-07-26T16:12:28.335Z,3.83
2017-07-26T16:14:56.557Z,4.13
2017-07-26T16:17:23.987Z,4.00
2017-07-26T16:19:51.427Z,4.43
2017-07-26T16:22:19.651Z,3.60
2017-07-26T16:24:47.097Z,4.17
2017-07-26T16:27:14.538Z,3.97
2017-07-26T16:29:41.983Z,4.60
2017-07-26T16:32:09.414Z,4.17
2017-07-26T16:34:37.635Z,4.63
2017-07-26T16:37:05.075Z,4.10
2017-07-26T16:39:32.518Z,4.00
2017-07-26T16:41:59.960Z,4.20
2017-07-26T16:44:28.182Z,3.93
2017-07-26T16:46:55.634Z,4.00
2017-07-26T16:49:23.096Z,3.87
2017-07-26T16:51:50.535Z,4.20
2017-07-26T16:54:17.971Z,3.80
2017-07-26T16:56:46.189Z,3.63
2017-07-26T16:59:13.643Z,4.40
2017-07-26T17:01:41.095Z,3.97
2017-07-26T17:04:08.958Z,3.73
2017-07-26T17:06:36.411Z,4.00
2017-07-26T17:09:03.855Z,4.20
2017-07-26T17:11:31.298Z,4.00
2017-07-26T17:13:58.739Z,4.00
2017-07-26T17:16:26.191Z,4.23
2017-07-26T17:18:54.402Z,4.50
2017-07-26T17:21:21.842Z,3.80
2017-07-26T17:23:49.275Z,3.87
2017-07-26T17:26:16.715Z,4.03
2017-07-26T17:28:44.154Z,3.13
2017-07-26T17:31:11.616Z,4.23
2017-07-26T17:33:39.046Z,4.17
2017-07-26T17:36:06.494Z,4.10
2017-07-26T17:38:33.931Z,3.50
2017-07-26T17:41:01.366Z,4.00
2017-07-26T17:43:29.592Z,3.37
2017-07-26T17:45:57.027Z,4.67
2017-07-26T17:48:24.478Z,3.40
2017-07-26T17:50:51.925Z,3.63
2017-07-26T17:53:19.362Z,3.63
2017-07-26T17:55:47.583Z,4.00
2017-07-26T17:58:15.038Z,4.33
2017-07-26T18:00:42.470Z,3.40
2017-07-26T18:03:09.915Z,4.10
2017-07-26T18:05:38.127Z,3.63
2017-07-26T18:08:05.582Z,3.90
2017-07-26T18:10:33.034Z,3.60
2017-07-26T18:13:00.470Z,3.90
2017-07-26T18:15:27.903Z,4.20
2017-07-26T18:17:56.125Z,3.70
2017-07-26T18:20:23.563Z,3.80
2017-07-26T18:22:50.998Z,3.50
2017-07-26T18:25:19.206Z,3.67
2017-07-26T18:27:46.647Z,3.80
2017-07-26T18:30:14.091Z,3.40
2017-07-26T18:32:42.294Z,3.20
2017-07-26T18:35:09.763Z,3.67
2017-07-26T18:37:37.211Z,3.70
2017-07-26T18:40:04.662Z,3.30
2017-07-26T18:42:32.102Z,3.70
2017-07-26T18:44:59.554Z,3.30
2017-07-26T18:47:26.982Z,3.20
2017-07-26T18:49:55.203Z,3.30
2017-07-26T18:52:22.647Z,3.50
2017-07-26T18:54:50.090Z,3.97
2017-07-26T18:57:18.291Z,4.17
2017-07-26T18:59:45.758Z,4.10
2017-07-26T19:02:13.203Z,3.20
2017-07-26T19:04:40.639Z,3.40
2017-07-26T19:07:08.082Z,3.50
2017-07-26T19:09:35.518Z,3.83
2017-07-26T19:12:02.963Z,3.37
2017-07-26T19:14:30.407Z,3.57
2017-07-26T19:16:57.857Z,3.50
2017-07-26T19:19:25.316Z,4.00
2017-07-26T19:21:52.764Z,4.07
2017-07-26T19:24:20.207Z,3.83
2017-07-26T19:26:47.660Z,3.63
2017-07-26T19:29:15.095Z,3.60
2017-07-26T19:31:42.548Z,3.53
2017-07-26T19:34:09.982Z,4.20
2017-07-26T19:36:38.204Z,3.67
2017-07-26T19:39:05.647Z,4.00
2017-07-26T19:41:33.078Z,3.67
2017-07-26T19:44:01.291Z,3.47
2017-07-26T19:46:28.742Z,3.20
2017-07-26T19:48:56.187Z,3.57
2017-07-26T19:51:23.618Z,3.67
2017-07-26T19:53:51.838Z,3.53
2017-07-26T19:56:19.286Z,3.60
2017-07-26T19:58:46.743Z,3.90
2017-07-26T20:01:14.199Z,3.40
2017-07-26T20:03:41.654Z,4.00
2017-07-26T20:06:09.106Z,3.87
2017-07-26T20:08:36.565Z,3.43
2017-07-26T20:11:04.027Z,3.40
2017-07-26T20:13:31.480Z,4.40
2017-07-26T20:15:58.923Z,4.07
2017-07-26T20:18:26.372Z,4.23
2017-07-26T20:20:53.811Z,4.20
2017-07-26T20:23:22.038Z,3.83
2017-07-26T20:25:49.477Z,3.60
2017-07-26T20:28:16.918Z,3.67
2017-07-26T20:30:44.367Z,3.90
2017-07-26T20:33:11.802Z,4.30
2017-07-26T20:35:40.020Z,4.27
2017-07-26T20:38:07.463Z,4.10
2017-07-26T20:40:34.906Z,4.30
2017-07-26T20:43:02.338Z,3.67
2017-07-26T20:45:29.779Z,4.20
2017-07-26T20:47:57.210Z,4.40
2017-07-26T20:50:24.658Z,4.30
2017-07-26T20:52:52.100Z,3.80
2017-07-26T20:55:19.550Z,4.00
2017-07-26T20:57:47.000Z,4.17
2017-07-26T21:00:14.455Z,4.20
2017-07-26T21:02:41.930Z,3.57
2017-07-26T21:05:10.151Z,4.50
2017-07-26T21:07:37.590Z,4.20
2017-07-26T21:10:05.026Z,4.07
2017-07-26T21:12:33.242Z,4.10
2017-07-26T21:15:00.693Z,4.07
2017-07-26T21:17:28.154Z,3.97
2017-07-26T21:19:55.595Z,4.27
2017-07-26T21:22:23.815Z,4.50
2017-07-26T21:24:51.283Z,4.40
2017-07-26T21:27:18.768Z,4.43
2017-07-26T21:29:46.220Z,4.27
2017-07-26T21:32:13.667Z,4.27
2017-07-26T21:34:42.524Z,4.20
2017-07-26T21:37:10.037Z,3.90
2017-07-26T21:39:37.470Z,4.63
2017-07-26T21:42:04.955Z,4.67
2017-07-26T21:44:32.413Z,4.30
2017-07-26T21:47:00.630Z,4.67
2017-07-26T21:49:28.099Z,4.47
2017-07-26T21:51:55.597Z,3.90
2017-07-26T21:54:23.903Z,4.10
2017-07-26T21:56:51.354Z,4.60
2017-07-26T21:59:18.795Z,4.10
2017-07-26T22:01:46.255Z,4.30
2017-07-26T22:04:13.699Z,3.90
2017-07-26T22:06:41.135Z,3.57
2017-07-26T22:09:09.363Z,3.43
2017-07-26T22:11:36.815Z,4.20
2017-07-26T22:14:04.271Z,3.77
2017-07-26T22:16:31.710Z,4.00
2017-07-26T22:18:59.164Z,3.67
2017-07-26T22:21:26.602Z,4.40
2017-07-26T22:23:54.816Z,3.60
2017-07-26T22:26:22.263Z,4.00
2017-07-26T22:28:49.698Z,4.03
2017-07-26T22:31:17.135Z,3.90
2017-07-26T22:33:44.571Z,4.20
2017-07-26T22:36:12.026Z,3.90
2017-07-26T22:38:39.471Z,4.23
2017-07-26T22:41:06.926Z,4.17
2017-07-26T22:43:34.371Z,4.60
2017-07-26T22:46:01.819Z,4.10
2017-07-26T22:48:29.258Z,3.97
2017-07-26T22:50:56.710Z,3.70
2017-07-26T22:53:24.153Z,4.10
2017-07-26T22:55:52.358Z,4.53
2017-07-26T22:58:19.803Z,3.80
2017-07-26T23:00:47.251Z,4.50
2017-07-26T23:03:14.687Z,4.47
2017-07-26T23:05:42.934Z,3.80
2017-07-26T23:08:10.387Z,3.80
2017-07-26T23:10:37.835Z,4.03
2017-07-26T23:13:05.271Z,4.13
2017-07-26T23:15:32.740Z,4.00
2017-07-26T23:18:00.180Z,4.17
2017-07-26T23:20:27.619Z,4.27
2017-07-26T23:22:55.068Z,4.07
2017-07-26T23:25:22.506Z,4.03
2017-07-26T23:27:50.723Z,3.60
2017-07-26T23:30:18.179Z,3.90
2017-07-26T23:32:45.635Z,4.40
2017-07-26T23:35:13.071Z,3.83
2017-07-26T23:37:40.518Z,3.73
2017-07-26T23:40:08.723Z,4.00
2017-07-26T23:42:36.180Z,3.90
2017-07-26T23:45:03.619Z,4.37
2017-07-26T23:47:31.063Z,4.37
2017-07-26T23:49:58.500Z,4.20
2017-07-26T23:52:26.718Z,4.10
2017-07-26T23:54:54.174Z,4.30
2017-07-26T23:57:21.619Z,4.23
2017-07-26T23:59:49.060Z,4.17
